Time;durP1;ratioP1;P1;durP2;ratioP2;P2;SDS_P1;SDS_P2;PMS_P1;PMS_P2;Temp;Humidity;BMP_temperature;BMP_pressure;BME280_temperature;BME280_humidity;BME280_pressure;Samples;Min_cycle;Max_cycle;Signal;HPM_P1;HPM_P2
2021/12/27 00:01:54;;;;;;;43.25;18.45;;;7.00;99.90;;;;;;5040916;28;20118;-92
2021/12/27 00:04:24;;;;;;;54.53;21.88;;;7.10;99.90;;;;;;5039163;28;20065;-91
2021/12/27 00:06:53;;;;;;;44.53;18.88;;;7.10;99.90;;;;;;5039081;28;20049;-92
2021/12/27 00:09:21;;;;;;;46.22;20.73;;;7.10;99.90;;;;;;5037761;28;20087;-91
2021/12/27 00:11:51;;;;;;;43.63;20.80;;;7.00;99.90;;;;;;5038542;28;20053;-92
2021/12/27 00:14:20;;;;;;;52.50;22.35;;;6.10;99.90;;;;;;5040020;28;20136;-91
2021/12/27 00:16:47;;;;;;;52.17;21.52;;;7.00;99.90;;;;;;5039174;28;20053;-93
2021/12/27 00:19:25;;;;;;;50.40;20.73;;;7.20;99.90;;;;;;5039977;28;20053;-92
2021/12/27 00:21:56;;;;;;;47.47;21.30;;;6.90;99.90;;;;;;5040584;28;20049;-92
2021/12/27 00:24:26;;;;;;;42.78;19.85;;;7.80;99.90;;;;;;5038660;28;20060;-91
2021/12/27 00:26:54;;;;;;;38.42;18.20;;;7.40;99.90;;;;;;5038850;28;20073;-92
2021/12/27 00:29:22;;;;;;;35.00;16.27;;;7.30;99.90;;;;;;5039518;28;20068;-91
2021/12/27 00:31:51;;;;;;;41.15;18.08;;;8.90;99.90;;;;;;5040462;28;20052;-91
2021/12/27 00:34:19;;;;;;;44.50;20.10;;;7.60;99.90;;;;;;5040667;28;20050;-91
2021/12/27 00:36:51;;;;;;;43.45;18.75;;;6.40;99.90;;;;;;5039708;28;20049;-91
2021/12/27 00:39:23;;;;;;;40.20;18.17;;;7.90;99.90;;;;;;5040202;28;20057;-92
2021/12/27 00:41:55;;;;;;;36.88;15.85;;;7.20;99.90;;;;;;5040476;28;20137;-92
2021/12/27 00:44:24;;;;;;;44.28;20.10;;;7.50;99.90;;;;;;5039249;28;20072;-92
2021/12/27 00:46:52;;;;;;;42.53;17.38;;;7.70;99.90;;;;;;5039840;28;20407;-92
2021/12/27 00:49:19;;;;;;;47.75;21.48;;;7.30;99.90;;;;;;5040159;28;20045;-92
2021/12/27 00:51:48;;;;;;;46.85;20.92;;;7.50;99.90;;;;;;5039626;28;20049;-92
2021/12/27 00:54:19;;;;;;;44.50;20.27;;;7.30;99.90;;;;;;5039454;28;20484;-93
2021/12/27 00:56:47;;;;;;;55.75;21.33;;;7.50;99.90;;;;;;5039773;28;20055;-92
2021/12/27 00:59:16;;;;;;;45.38;20.40;;;7.00;99.90;;;;;;5039797;28;20045;-93
2021/12/27 01:01:45;;;;;;;43.60;19.75;;;7.50;99.90;;;;;;5039981;28;20049;-92
2021/12/27 01:04:13;;;;;;;50.13;20.60;;;9.20;99.90;;;;;;5042520;28;20077;-92
2021/12/27 01:06:45;;;;;;;43.42;19.45;;;7.30;99.90;;;;;;5042735;28;20049;-92
2021/12/27 01:09:24;;;;;;;54.80;21.98;;;7.10;99.90;;;;;;5040262;28;20484;-93
2021/12/27 01:12:10;;;;;;;52.80;21.35;;;7.20;99.90;;;;;;5022056;28;20049;-93
2021/12/27 01:14:44;;;;;;;47.92;17.58;;;7.10;99.90;;;;;;5022822;28;20080;-93
2021/12/27 01:17:13;;;;;;;40.97;17.30;;;7.20;99.90;;;;;;5034638;28;20029;-91
2021/12/27 01:19:45;;;;;;;38.80;17.17;;;7.50;99.90;;;;;;5016166;28;20097;-91
2021/12/27 01:22:12;;;;;;;38.58;19.08;;;7.50;99.90;;;;;;5036799;28;20076;-91
2021/12/27 01:24:42;;;;;;;40.25;16.55;;;7.30;99.90;;;;;;5024068;28;20060;-92
2021/12/27 01:27:10;;;;;;;41.95;18.25;;;7.80;99.90;;;;;;5020606;28;20567;-93
2021/12/27 01:29:40;;;;;;;44.08;16.52;;;7.90;99.90;;;;;;5021261;28;20056;-93
2021/12/27 01:32:09;;;;;;;43.72;18.50;;;8.00;99.90;;;;;;5021267;28;20405;-92
2021/12/27 01:34:52;;;;;;;34.22;16.30;;;7.70;99.90;;;;;;5019381;28;20052;-92
2021/12/27 01:37:21;;;;;;;44.92;16.60;;;7.60;99.90;;;;;;5017273;28;20580;-90
2021/12/27 01:39:48;;;;;;;36.22;16.50;;;7.40;99.90;;;;;;5016813;28;20511;-91
2021/12/27 01:42:18;;;;;;;38.75;17.15;;;7.60;99.90;;;;;;5018833;28;20053;-92
2021/12/27 01:44:48;;;;;;;47.97;18.42;;;7.40;99.90;;;;;;5022385;28;20088;-92
2021/12/27 01:47:19;;;;;;;39.13;16.00;;;7.50;99.90;;;;;;5023859;28;20053;-92
2021/12/27 01:49:52;;;;;;;43.30;17.63;;;7.40;99.90;;;;;;5021860;28;20049;-92
2021/12/27 01:52:20;;;;;;;45.70;18.63;;;7.40;99.90;;;;;;5021106;28;20133;-92
2021/12/27 01:54:47;;;;;;;41.63;16.48;;;7.40;99.90;;;;;;5020955;28;20507;-93
2021/12/27 01:57:14;;;;;;;43.50;16.83;;;7.30;99.90;;;;;;5022011;28;20129;-93
2021/12/27 01:59:42;;;;;;;45.28;17.10;;;7.40;99.90;;;;;;5023074;28;20060;-93
2021/12/27 02:02:24;;;;;;;44.90;17.42;;;7.60;99.90;;;;;;5021996;28;20065;-93
2021/12/27 02:04:51;;;;;;;46.90;18.17;;;7.20;99.90;;;;;;5019913;28;20046;-92
2021/12/27 02:07:19;;;;;;;39.88;17.80;;;7.20;99.90;;;;;;5016864;28;20141;-93
2021/12/27 02:09:57;;;;;;;47.33;18.08;;;7.40;99.90;;;;;;5017129;28;20077;-93
2021/12/27 02:12:26;;;;;;;50.92;18.60;;;7.30;99.90;;;;;;5016692;28;20137;-92
2021/12/27 02:14:54;;;;;;;53.00;19.35;;;7.50;99.90;;;;;;5016510;28;20096;-93
2021/12/27 02:17:26;;;;;;;45.25;16.88;;;7.40;99.90;;;;;;5018416;28;20113;-93
2021/12/27 02:19:57;;;;;;;43.35;17.55;;;7.20;99.90;;;;;;5020585;28;20056;-93
2021/12/27 02:22:28;;;;;;;63.85;23.25;;;7.10;99.90;;;;;;5020709;28;20049;-93
2021/12/27 02:24:56;;;;;;;53.67;19.05;;;7.10;99.90;;;;;;5019777;28;20073;-93
2021/12/27 02:27:23;;;;;;;48.25;20.20;;;7.10;99.90;;;;;;5019589;28;20074;-93
2021/12/27 02:29:52;;;;;;;45.92;18.42;;;5.80;99.90;;;;;;5021183;28;20050;-93
2021/12/27 02:32:22;;;;;;;48.10;19.30;;;7.30;99.90;;;;;;5019692;28;20042;-92
2021/12/27 02:34:54;;;;;;;54.08;21.13;;;7.40;99.90;;;;;;5019612;28;20046;-91
2021/12/27 02:37:25;;;;;;;54.05;20.70;;;7.20;99.90;;;;;;5019970;28;20069;-92
2021/12/27 02:39:53;;;;;;;53.72;19.92;;;7.10;99.90;;;;;;5019716;28;20065;-91
2021/12/27 02:42:21;;;;;;;47.15;18.50;;;7.10;99.90;;;;;;5019471;28;20550;-91
2021/12/27 02:44:48;;;;;;;51.15;19.13;;;7.20;99.90;;;;;;5019670;28;20050;-92
2021/12/27 02:47:16;;;;;;;56.47;21.17;;;7.20;99.90;;;;;;5019874;28;20053;-92
2021/12/27 02:49:46;;;;;;;55.65;21.42;;;7.20;99.90;;;;;;5019395;28;20049;-93
2021/12/27 02:52:13;;;;;;;51.72;19.30;;;7.20;99.90;;;;;;5019386;28;20045;-93
2021/12/27 02:54:45;;;;;;;49.15;18.30;;;7.20;99.90;;;;;;5019413;28;20050;-94
2021/12/27 02:57:12;;;;;;;55.65;21.48;;;7.40;99.90;;;;;;5019874;28;20056;-93
2021/12/27 02:59:44;;;;;;;57.92;21.50;;;6.70;99.90;;;;;;5019473;28;20049;-93
2021/12/27 03:02:13;;;;;;;51.55;20.55;;;7.20;99.90;;;;;;5022508;28;20057;-92
2021/12/27 03:04:40;;;;;;;;;;;7.00;99.90;;;;;;5021474;28;20050;-93
2021/12/27 03:07:08;;;;;;;52.92;19.80;;;7.80;99.90;;;;;;5028282;28;20015;-93
2021/12/27 03:09:39;;;;;;;61.00;21.73;;;7.10;99.90;;;;;;5019098;28;20560;-92
2021/12/27 03:12:13;;;;;;;49.00;20.27;;;7.10;99.90;;;;;;5022221;28;20045;-92
2021/12/27 03:14:43;;;;;;;50.72;18.33;;;7.30;99.90;;;;;;5032088;28;20058;-91
2021/12/27 03:17:13;;;;;;;63.05;22.15;;;7.10;99.90;;;;;;5037218;28;20084;-92
2021/12/27 03:19:43;;;;;;;50.97;21.48;;;7.10;99.90;;;;;;5036948;28;20042;-92
2021/12/27 03:22:13;;;;;;;56.40;21.23;;;7.30;99.90;;;;;;5025752;28;20046;-93
2021/12/27 03:24:42;;;;;;;54.13;19.85;;;7.30;99.90;;;;;;5019792;28;20113;-92
2021/12/27 03:27:12;;;;;;;64.72;20.85;;;7.00;99.90;;;;;;5019135;28;20061;-92
2021/12/27 03:29:42;;;;;;;62.72;22.25;;;7.00;99.90;;;;;;5020268;28;20061;-92
2021/12/27 03:32:13;;;;;;;62.40;22.85;;;7.10;99.90;;;;;;5018076;28;20050;-92
2021/12/27 03:34:52;;;;;;;60.38;22.80;;;6.90;99.90;;;;;;5018571;28;20053;-92
2021/12/27 03:37:23;;;;;;;63.65;20.13;;;6.80;99.90;;;;;;5018737;28;20053;-93
2021/12/27 03:39:54;;;;;;;53.90;20.17;;;7.20;99.90;;;;;;5019015;28;20567;-93
2021/12/27 03:42:25;;;;;;;50.92;17.48;;;7.00;99.90;;;;;;5018695;28;20113;-93
2021/12/27 03:44:57;;;;;;;53.33;20.83;;;7.50;99.90;;;;;;5018455;28;20116;-93
2021/12/27 03:47:30;;;;;;;41.38;18.33;;;7.20;99.90;;;;;;5018660;28;20046;-93
2021/12/27 03:50:04;;;;;;;46.30;19.05;;;7.30;99.90;;;;;;5019022;28;20046;-93
2021/12/27 03:52:33;;;;;;;40.38;17.00;;;7.50;99.90;;;;;;5018378;28;20056;-93
2021/12/27 03:55:09;;;;;;;40.25;17.77;;;7.70;99.90;;;;;;5018760;28;20145;-93
2021/12/27 03:57:40;;;;;;;41.25;17.40;;;8.00;99.90;;;;;;5018965;28;20118;-93
2021/12/27 04:00:30;;;;;;;49.85;19.48;;;7.50;99.90;;;;;;5018163;28;20061;-92
2021/12/27 04:03:18;;;;;;;;;;;;;;;;;;;;;
2021/12/27 04:05:48;;;;;;;38.53;18.00;;;7.40;99.90;;;;;;5018205;28;20046;-93
2021/12/27 04:08:21;;;;;;;43.90;19.52;;;7.30;99.90;;;;;;5018239;28;20056;-93
2021/12/27 04:10:49;;;;;;;40.80;19.20;;;7.70;99.90;;;;;;5017823;28;20153;-93
2021/12/27 04:13:21;;;;;;;49.03;18.95;;;7.70;99.90;;;;;;5018612;28;20096;-93
2021/12/27 04:16:21;;;;;;;49.83;19.60;;;7.60;99.90;;;;;;5018196;28;20046;-93
2021/12/27 06:42:05;;;;;;;;;;;;;;;;;;;;;
2021/12/27 06:48:53;;;;;;;26.15;12.35;;;6.80;99.90;;;;;;4884267;29;20061;-92
2021/12/27 07:01:16;;;;;;;25.92;12.05;;;6.80;99.90;;;;;;4825565;29;20054;-91
2021/12/27 07:06:41;;;;;;;27.45;13.82;;;8.20;99.90;;;;;;4884332;29;20425;-93
2021/12/27 07:09:27;;;;;;;25.90;11.60;;;7.00;99.90;;;;;;4998530;28;20112;-91
2021/12/27 07:12:07;;;;;;;24.90;12.65;;;7.00;99.90;;;;;;5059096;28;20510;-92
2021/12/27 07:14:48;;;;;;;32.80;13.25;;;7.00;99.90;;;;;;5059184;28;20053;-90
2021/12/27 07:18:05;;;;;;;;;;;;;;;;;;;;;
2021/12/27 07:20:41;;;;;;;30.88;12.98;;;6.90;99.90;;;;;;5040200;28;20050;-93
2021/12/27 07:23:15;;;;;;;27.38;12.20;;;7.10;99.90;;;;;;5039716;28;20049;-93
2021/12/27 07:26:06;;;;;;;25.55;12.93;;;5.90;99.90;;;;;;5038840;28;20054;-93
2021/12/27 07:28:56;;;;;;;;;;;;;;;;;;;;;
2021/12/27 07:31:29;;;;;;;29.65;11.93;;;6.90;99.90;;;;;;5039323;28;20045;-93
2021/12/27 07:34:02;;;;;;;27.52;13.30;;;6.60;99.90;;;;;;5037981;28;20049;-93
2021/12/27 07:36:40;;;;;;;35.78;14.80;;;6.50;99.90;;;;;;5038055;28;20061;-93
2021/12/27 07:39:08;;;;;;;29.00;14.85;;;6.50;99.90;;;;;;5038558;28;20050;-93
2021/12/27 07:41:38;;;;;;;27.92;13.68;;;6.50;99.90;;;;;;5038442;28;20058;-93
2021/12/27 07:44:07;;;;;;;34.88;14.15;;;7.50;99.90;;;;;;5038147;28;20045;-92
2021/12/27 07:46:40;;;;;;;27.77;12.13;;;6.50;99.90;;;;;;5038005;28;20564;-93
2021/12/27 07:49:10;;;;;;;26.20;12.40;;;6.90;99.90;;;;;;5038244;28;20050;-93
2021/12/27 07:51:40;;;;;;;27.60;13.88;;;6.60;99.90;;;;;;5038220;28;20067;-93
2021/12/27 07:54:07;;;;;;;33.53;13.45;;;6.50;99.90;;;;;;5038201;28;20411;-94
2021/12/27 07:56:39;;;;;;;28.45;12.35;;;7.30;99.90;;;;;;5038464;28;20056;-94
2021/12/27 07:59:09;;;;;;;21.58;8.27;;;6.50;99.90;;;;;;5038930;28;20451;-94
2021/12/27 08:01:38;;;;;;;16.40;7.28;;;7.10;99.90;;;;;;5038272;28;20049;-94
2021/12/27 08:04:06;;;;;;;11.02;6.32;;;6.80;99.90;;;;;;5038243;28;20442;-94
2021/12/27 08:06:35;;;;;;;10.55;5.50;;;6.50;99.90;;;;;;5038820;28;20140;-92
2021/12/27 08:09:09;;;;;;;9.30;3.72;;;7.00;99.90;;;;;;5038195;28;20470;-92
2021/12/27 08:11:39;;;;;;;16.40;4.53;;;7.00;99.90;;;;;;5038539;28;20113;-92
2021/12/27 08:14:07;;;;;;;10.18;4.00;;;6.80;99.90;;;;;;5038560;28;20383;-93
2021/12/27 08:16:48;;;;;;;12.63;3.85;;;6.80;99.90;;;;;;5038483;28;20049;-93
2021/12/27 08:19:15;;;;;;;10.90;3.20;;;6.80;99.90;;;;;;5037898;28;20049;-92
2021/12/27 08:22:10;;;;;;;7.43;3.53;;;6.90;99.90;;;;;;5037879;28;20046;-93
2021/12/27 08:25:15;;;;;;;7.82;3.42;;;7.10;99.90;;;;;;4990332;28;20060;-93
2021/12/27 08:27:54;;;;;;;7.53;3.67;;;6.40;99.90;;;;;;5037700;28;20056;-94
2021/12/27 08:30:43;;;;;;;;;;;;;;;;;;;;;
2021/12/27 08:33:28;;;;;;;;;;;;;;;;;;;;;
2021/12/27 08:36:13;;;;;;;8.75;2.90;;;6.90;99.90;;;;;;5037684;28;20516;-93
2021/12/27 08:38:59;;;;;;;10.63;3.13;;;8.30;99.90;;;;;;5038792;28;20057;-92
2021/12/27 08:41:56;;;;;;;8.00;2.85;;;6.90;99.90;;;;;;5037909;28;20096;-93
2021/12/27 08:45:03;;;;;;;10.43;2.92;;;7.50;99.90;;;;;;5038232;28;20050;-92
2021/12/27 08:48:06;;;;;;;;;;;;;;;;;;;;;
2021/12/27 08:50:42;;;;;;;7.05;2.92;;;7.00;99.90;;;;;;5038501;28;20049;-93
2021/12/27 08:53:38;;;;;;;9.43;3.40;;;6.90;99.90;;;;;;5038246;28;20060;-93
2021/12/27 08:56:18;;;;;;;;;;;;;;;;;;;;;
2021/12/27 08:59:06;;;;;;;7.35;3.20;;;6.90;99.90;;;;;;5038559;28;20050;-92
2021/12/27 09:02:07;;;;;;;9.68;3.55;;;6.90;99.90;;;;;;5039798;28;20546;-92
2021/12/27 09:05:15;;;;;;;7.70;3.55;;;6.70;99.90;;;;;;5057567;28;20052;-93
2021/12/27 09:07:44;;;;;;;9.80;4.22;;;6.70;99.90;;;;;;5069839;28;20049;-93
2021/12/27 09:13:17;;;;;;;10.10;3.50;;;6.50;99.90;;;;;;5072289;28;20076;-92
2021/12/27 09:15:51;;;;;;;9.32;3.38;;;5.10;99.90;;;;;;5063945;28;20051;-92
2021/12/27 09:18:31;;;;;;;8.90;3.08;;;6.50;99.90;;;;;;5057118;28;20055;-93
2021/12/27 09:21:23;;;;;;;6.38;3.33;;;6.70;99.90;;;;;;5056784;28;20053;-93
2021/12/27 09:24:12;;;;;;;7.88;3.55;;;6.60;99.90;;;;;;5047610;28;20111;-93
2021/12/27 09:26:41;;;;;;;8.70;4.47;;;6.60;99.90;;;;;;5056748;28;20059;-93
2021/12/27 09:29:19;;;;;;;10.25;4.00;;;6.90;99.90;;;;;;5056874;28;20056;-92
2021/12/27 09:31:55;;;;;;;9.60;4.70;;;6.40;99.90;;;;;;5058017;28;20148;-92
2021/12/27 09:34:35;;;;;;;8.38;4.40;;;6.60;99.90;;;;;;5056489;28;20053;-92
2021/12/27 09:37:07;;;;;;;10.88;4.13;;;6.70;99.90;;;;;;5056918;28;20467;-93
2021/12/27 09:39:34;;;;;;;10.27;3.78;;;6.30;99.90;;;;;;5055969;28;20053;-93
2021/12/27 09:42:13;;;;;;;8.45;4.53;;;6.40;99.90;;;;;;5059766;28;20052;-93
2021/12/27 09:44:53;;;;;;;9.23;3.30;;;6.70;99.90;;;;;;5057428;28;20041;-93
2021/12/27 09:47:42;;;;;;;;;;;;;;;;;;;;;
2021/12/27 09:50:37;;;;;;;11.98;3.80;;;6.50;99.90;;;;;;5058244;28;20053;-92
2021/12/27 09:53:25;;;;;;;5.90;2.95;;;6.90;99.90;;;;;;5056881;28;20049;-93
2021/12/27 09:58:58;;;;;;;8.15;3.03;;;6.80;99.90;;;;;;5054401;28;20048;-92
2021/12/27 10:01:35;;;;;;;8.70;3.40;;;5.50;99.90;;;;;;5056950;28;20117;-92
2021/12/27 10:04:09;;;;;;;8.02;3.22;;;6.80;99.90;;;;;;5056864;28;20075;-92
2021/12/27 10:07:04;;;;;;;;;;;;;;;;;;;;;
2021/12/27 10:09:55;;;;;;;9.20;3.88;;;5.50;99.90;;;;;;5057699;28;20136;-92
2021/12/27 10:13:02;;;;;;;;;;;;;;;;;;;;;
2021/12/27 10:19:18;;;;;;;;;;;;;;;;;;;;;
2021/12/27 10:22:16;;;;;;;6.82;2.92;;;7.40;99.90;;;;;;5059228;28;20139;-93
2021/12/27 10:24:53;;;;;;;9.63;4.20;;;7.70;99.90;;;;;;5056930;28;20049;-92
2021/12/27 10:28:25;;;;;;;;;;;;;;;;;;;;;
2021/12/27 10:31:09;;;;;;;6.00;3.28;;;7.90;99.90;;;;;;5058379;28;20111;-94
2021/12/27 10:40:44;;;;;;;;;;;;;;;;;;;;;
2021/12/27 10:43:35;;;;;;;11.57;5.75;;;8.30;99.90;;;;;;5000112;28;20069;-93
2021/12/27 10:46:39;;;;;;;9.35;4.03;;;8.20;99.90;;;;;;4943212;29;20055;-92
2021/12/27 10:49:38;;;;;;;6.80;3.40;;;8.40;99.90;;;;;;4935823;29;20047;-93
2021/12/27 10:52:50;;;;;;;9.77;3.70;;;9.10;99.90;;;;;;4901746;29;20171;-93
2021/12/27 10:55:40;;;;;;;;;;;;;;;;;;;;;
2021/12/27 10:58:25;;;;;;;6.53;3.83;;;8.30;99.90;;;;;;4914603;29;20071;-91
2021/12/27 11:01:23;;;;;;;8.82;3.83;;;8.40;99.90;;;;;;4925080;29;20063;-92
2021/12/27 11:28:09;;;;;;;8.82;3.83;;;8.80;99.90;;;;;;4889730;29;20440;-93
2021/12/27 11:31:11;;;;;;;;;;;;;;;;;;;;;
2021/12/27 11:34:24;;;;;;;11.73;3.63;;;8.80;99.90;;;;;;4893835;29;20060;-93
2021/12/27 11:37:39;;;;;;;13.70;3.97;;;8.80;99.90;;;;;;4828988;29;20418;-92
2021/12/27 11:51:08;;;;;;;;;;;;;;;;;;;;;
2021/12/27 11:54:05;;;;;;;9.70;4.15;;;9.20;99.90;;;;;;4818387;29;20058;-93
2021/12/27 11:57:30;;;;;;;;;;;;;;;;;;;;;
2021/12/27 12:01:02;;;;;;;14.90;7.50;;;8.80;99.90;;;;;;4863407;29;20059;-92
2021/12/27 12:10:42;;;;;;;11.02;5.00;;;8.10;99.90;;;;;;5062784;23;20062;-92
2021/12/27 12:17:20;;;;;;;;;;;;;;;;;;;;;
2021/12/27 12:26:29;;;;;;;12.43;5.50;;;8.70;99.90;;;;;;4939538;29;20059;-92
2021/12/27 12:35:56;;;;;;;;;;;;;;;;;;;;;
2021/12/27 12:41:58;;;;;;;16.90;6.63;;;9.00;99.90;;;;;;4992353;28;20045;-93
2021/12/27 12:44:30;;;;;;;12.70;6.55;;;8.60;99.90;;;;;;5020080;28;20084;-93
2021/12/27 12:47:01;;;;;;;12.32;6.75;;;8.60;99.90;;;;;;5040209;28;20472;-93
2021/12/27 12:50:14;;;;;;;18.60;9.00;;;8.50;99.90;;;;;;5041546;28;20045;-92
2021/12/27 12:52:55;;;;;;;12.27;6.45;;;8.80;99.90;;;;;;5034428;28;20140;-93
2021/12/27 12:56:03;;;;;;;;;;;;;;;;;;;;;
2021/12/27 12:59:18;;;;;;;12.43;5.97;;;7.70;99.90;;;;;;4943189;29;20067;-92
2021/12/27 13:02:36;;;;;;;16.73;7.68;;;8.60;99.90;;;;;;4953468;29;20048;-93
2021/12/27 13:05:08;;;;;;;12.90;5.97;;;8.40;99.90;;;;;;5033962;28;20099;-90
2021/12/27 13:07:54;;;;;;;;;;;;;;;;;;;;;
2021/12/27 13:10:37;;;;;;;16.23;7.25;;;8.80;99.90;;;;;;5019279;28;20050;-94
2021/12/27 13:13:18;;;;;;;15.85;7.00;;;8.70;99.90;;;;;;5020060;28;20058;-92
2021/12/27 13:16:19;;;;;;;13.88;7.30;;;8.80;99.90;;;;;;5018771;28;20077;-93
2021/12/27 13:18:48;;;;;;;15.25;7.78;;;8.70;99.90;;;;;;5030992;28;20049;-92
2021/12/27 13:21:28;;;;;;;12.63;7.28;;;8.80;99.90;;;;;;5037992;28;20049;-92
2021/12/27 13:24:19;;;;;;;13.93;7.45;;;8.90;99.90;;;;;;5036691;28;20068;-93
2021/12/27 13:30:46;;;;;;;16.30;7.05;;;7.40;99.90;;;;;;5019786;28;20146;-94
2021/12/27 13:33:39;;;;;;;12.98;7.80;;;9.00;99.90;;;;;;5043304;28;20163;-92
2021/12/27 13:36:35;;;;;;;17.08;8.10;;;9.30;99.90;;;;;;5037198;28;20111;-93
2021/12/27 13:39:09;;;;;;;16.65;8.50;;;9.30;99.90;;;;;;5014957;28;20041;-92
2021/12/27 13:41:59;;;;;;;15.73;8.45;;;8.80;99.90;;;;;;5036593;28;20068;-93
2021/12/27 13:44:39;;;;;;;17.15;7.53;;;8.90;99.90;;;;;;5036980;28;20526;-94
2021/12/27 13:47:19;;;;;;;16.45;7.25;;;9.40;99.90;;;;;;5037759;28;20077;-92
2021/12/27 13:50:32;;;;;;;;;;;;;;;;;;;;;
2021/12/27 13:53:26;;;;;;;18.05;9.70;;;8.80;99.90;;;;;;5037437;28;20484;-93
2021/12/27 13:56:08;;;;;;;14.13;8.55;;;9.00;99.90;;;;;;5036633;28;20103;-93
2021/12/27 14:01:33;;;;;;;16.77;9.05;;;9.10;99.90;;;;;;5035561;28;20057;-93
2021/12/27 14:04:20;;;;;;;20.67;9.80;;;9.10;99.90;;;;;;5039519;28;20133;-95
2021/12/27 14:06:50;;;;;;;14.05;7.25;;;8.90;99.90;;;;;;5042703;28;20052;-92
2021/12/27 14:09:38;;;;;;;18.02;10.05;;;9.00;99.90;;;;;;5037514;28;20049;-92
2021/12/27 14:12:07;;;;;;;16.58;9.70;;;8.60;99.90;;;;;;5044871;28;20137;-91
2021/12/27 14:14:49;;;;;;;17.27;9.98;;;9.00;99.90;;;;;;5042031;28;20053;-93
2021/12/27 14:24:10;;;;;;;15.55;8.77;;;8.90;99.90;;;;;;5038198;28;20121;-93
2021/12/27 14:26:50;;;;;;;12.75;6.35;;;7.30;99.90;;;;;;5044642;28;20056;-92
2021/12/27 14:29:28;;;;;;;19.70;10.20;;;9.20;99.90;;;;;;5041739;28;20050;-92
2021/12/27 14:32:02;;;;;;;16.65;10.82;;;9.10;99.90;;;;;;5042302;28;20049;-92
2021/12/27 14:34:57;;;;;;;17.70;11.43;;;9.00;99.90;;;;;;5042699;28;20057;-93
2021/12/27 14:37:27;;;;;;;19.15;10.73;;;9.20;99.90;;;;;;4981877;28;20047;-93
2021/12/27 14:40:14;;;;;;;23.55;10.10;;;9.00;99.90;;;;;;5042518;28;20046;-92
2021/12/27 14:42:47;;;;;;;24.35;11.73;;;9.30;99.90;;;;;;5040513;28;20519;-92
2021/12/27 14:45:25;;;;;;;21.50;10.65;;;9.10;99.90;;;;;;5041744;28;20049;-94
2021/12/27 14:48:27;;;;;;;;;;;;;;;;;;;;;
2021/12/27 14:51:16;;;;;;;17.77;9.50;;;9.10;99.90;;;;;;5042625;28;20045;-90
2021/12/27 14:54:12;;;;;;;;;;;;;;;;;;;;;
2021/12/27 14:57:06;;;;;;;14.18;9.07;;;9.10;99.90;;;;;;5047452;28;20045;-93
2021/12/27 14:59:43;;;;;;;16.40;8.65;;;9.40;99.90;;;;;;4992055;28;20108;-92
2021/12/27 15:02:26;;;;;;;12.00;6.03;;;9.10;99.90;;;;;;5057245;28;20053;-91
2021/12/27 15:05:02;;;;;;;11.25;6.00;;;8.30;99.90;;;;;;5048812;28;20046;-91
2021/12/27 15:07:33;;;;;;;11.38;5.30;;;9.10;99.90;;;;;;5041989;28;20049;-93
2021/12/27 15:10:06;;;;;;;6.47;3.10;;;7.80;99.90;;;;;;5040801;28;20100;-92
2021/12/27 15:12:50;;;;;;;9.02;4.80;;;9.20;99.90;;;;;;5042592;28;20095;-92
2021/12/27 15:15:26;;;;;;;7.18;3.70;;;9.30;99.90;;;;;;5022568;28;20053;-93
2021/12/27 15:18:06;;;;;;;6.75;4.10;;;9.40;99.90;;;;;;5022280;28;20416;-92
2021/12/27 15:20:38;;;;;;;8.63;3.80;;;9.30;99.90;;;;;;5023454;28;20133;-92
2021/12/27 15:23:09;;;;;;;9.63;3.75;;;9.40;99.90;;;;;;5021135;28;20057;-93
2021/12/27 15:25:39;;;;;;;6.13;3.58;;;9.20;99.90;;;;;;5023312;28;20053;-91
2021/12/27 15:30:59;;;;;;;;;;;;;;;;;;;;;
2021/12/27 15:33:31;;;;;;;5.75;3.70;;;9.10;99.90;;;;;;5019483;28;20128;-93
2021/12/27 15:36:05;;;;;;;7.90;4.35;;;9.40;99.90;;;;;;5018267;28;20136;-93
2021/12/27 15:38:53;;;;;;;8.32;4.97;;;9.50;99.90;;;;;;5019949;28;20133;-91
2021/12/27 15:41:24;;;;;;;8.48;4.38;;;9.20;99.90;;;;;;5021155;28;20481;-92
2021/12/27 15:43:55;;;;;;;5.63;3.45;;;9.10;99.90;;;;;;5023306;28;20547;-92
2021/12/27 15:46:25;;;;;;;8.10;4.50;;;9.40;99.90;;;;;;5021599;28;20108;-92
2021/12/27 15:49:09;;;;;;;10.30;4.22;;;9.30;99.90;;;;;;5022038;28;20052;-93
2021/12/27 15:51:37;;;;;;;9.13;4.88;;;9.10;99.90;;;;;;5024599;28;20062;-92
2021/12/27 15:54:15;;;;;;;8.85;4.18;;;9.30;99.90;;;;;;5021718;28;20073;-92
2021/12/27 15:56:52;;;;;;;6.97;4.15;;;9.10;99.90;;;;;;5021632;28;20049;-93
2021/12/27 15:59:20;;;;;;;7.88;3.75;;;9.10;99.90;;;;;;5019281;28;20153;-92
2021/12/27 16:01:55;;;;;;;6.70;4.20;;;9.10;99.90;;;;;;5019257;28;20054;-93
2021/12/27 16:04:22;;;;;;;8.60;3.70;;;9.10;99.90;;;;;;5019900;28;20050;-92
2021/12/27 16:06:53;;;;;;;9.90;5.55;;;9.10;99.90;;;;;;5018602;28;20117;-92
2021/12/27 16:09:28;;;;;;;8.30;4.70;;;9.50;99.90;;;;;;5021152;28;20458;-92
2021/12/27 16:12:02;;;;;;;8.07;4.50;;;7.30;99.90;;;;;;5017842;28;20421;-93
2021/12/27 16:14:33;;;;;;;6.95;3.28;;;9.00;99.90;;;;;;5034987;28;20522;-92
2021/12/27 16:17:01;;;;;;;5.60;3.40;;;9.10;99.90;;;;;;5041051;28;20152;-93
2021/12/27 16:19:30;;;;;;;5.70;3.10;;;9.10;99.90;;;;;;5041172;28;20136;-91
2021/12/27 16:22:04;;;;;;;7.43;3.30;;;9.10;99.90;;;;;;5040295;28;20080;-92
2021/12/27 16:24:42;;;;;;;;;;;;;;;;;;;;;
2021/12/27 16:27:15;;;;;;;4.90;3.10;;;9.40;99.90;;;;;;5039684;28;20045;-93
2021/12/27 16:29:46;;;;;;;8.48;3.65;;;9.10;99.90;;;;;;5039836;28;20045;-93
2021/12/27 16:32:20;;;;;;;4.70;2.80;;;9.30;99.90;;;;;;5043607;28;20053;-92
2021/12/27 16:34:51;;;;;;;5.65;3.58;;;9.20;99.90;;;;;;5037766;28;20055;-90
2021/12/27 16:37:25;;;;;;;5.47;3.42;;;9.10;99.90;;;;;;5037020;28;20055;-92
2021/12/27 16:40:05;;;;;;;;;;;;;;;;;;;;;
2021/12/27 16:42:38;;;;;;;6.20;2.90;;;9.20;99.90;;;;;;5038859;28;20511;-92
2021/12/27 16:45:07;;;;;;;3.78;1.90;;;9.40;99.90;;;;;;5038384;28;20061;-92
2021/12/27 16:47:40;;;;;;;4.47;3.35;;;8.80;99.90;;;;;;5038833;28;20042;-91
2021/12/27 16:50:16;;;;;;;8.25;2.90;;;9.40;99.90;;;;;;5037939;28;20064;-92
2021/12/27 16:52:47;;;;;;;5.82;2.55;;;8.00;99.90;;;;;;5041084;28;20049;-91
2021/12/27 16:55:22;;;;;;;5.95;3.20;;;9.60;99.90;;;;;;5050861;28;20057;-91
2021/12/27 16:57:54;;;;;;;4.90;2.85;;;9.40;99.90;;;;;;5052829;28;20053;-93
2021/12/27 17:00:37;;;;;;;15.45;7.57;;;9.30;99.90;;;;;;5053761;28;20065;-92
2021/12/27 17:03:08;;;;;;;9.43;5.78;;;9.20;99.90;;;;;;5041884;28;20064;-92
2021/12/27 17:05:43;;;;;;;6.18;3.85;;;9.60;99.90;;;;;;5040086;23;20536;-92
2021/12/27 17:08:17;;;;;;;7.38;4.32;;;9.90;99.90;;;;;;5020729;28;20050;-94
2021/12/27 17:10:44;;;;;;;10.82;5.82;;;9.50;99.90;;;;;;5019808;28;20065;-93
2021/12/27 17:13:14;;;;;;;12.68;7.85;;;9.30;99.90;;;;;;5018954;28;20053;-92
2021/12/27 17:15:42;;;;;;;;;;;9.20;99.90;;;;;;5020061;28;20455;-92
2021/12/27 17:18:12;;;;;;;10.13;6.93;;;9.50;99.90;;;;;;5018707;28;19928;-92
2021/12/27 17:20:45;;;;;;;7.55;5.10;;;8.00;99.90;;;;;;5019995;28;20492;-92
2021/12/27 17:23:15;;;;;;;10.63;6.43;;;9.60;99.90;;;;;;5019272;28;20050;-91
2021/12/27 17:25:42;;;;;;;10.65;6.88;;;9.50;99.90;;;;;;5018102;28;20050;-94
2021/12/27 17:28:14;;;;;;;6.97;3.83;;;9.40;99.90;;;;;;5016568;28;20050;-91
2021/12/27 17:30:51;;;;;;;6.65;3.50;;;9.00;99.90;;;;;;5016753;28;20132;-92
2021/12/27 17:33:31;;;;;;;7.45;4.55;;;9.30;99.90;;;;;;5017891;28;20045;-93
2021/12/27 17:36:03;;;;;;;6.88;4.40;;;9.60;99.90;;;;;;5018573;28;20050;-91
2021/12/27 17:38:43;;;;;;;9.23;5.25;;;9.20;99.90;;;;;;5018336;28;20141;-92
2021/12/27 17:41:14;;;;;;;8.18;5.43;;;9.20;99.90;;;;;;5018745;28;20113;-93
2021/12/27 17:43:42;;;;;;;6.28;4.40;;;9.20;99.90;;;;;;5017626;28;20550;-93
2021/12/27 17:46:24;;;;;;;4.75;2.70;;;9.30;99.90;;;;;;5018989;28;20118;-92
2021/12/27 17:48:53;;;;;;;4.40;2.58;;;9.40;99.90;;;;;;5023584;28;20057;-93
2021/12/27 17:51:27;;;;;;;4.22;2.50;;;9.70;99.90;;;;;;5026277;28;20144;-92
2021/12/27 17:53:56;;;;;;;5.15;2.33;;;9.70;99.90;;;;;;5026041;28;20054;-93
2021/12/27 17:56:29;;;;;;;4.93;2.92;;;9.40;99.90;;;;;;5024118;28;20050;-92
2021/12/27 17:59:02;;;;;;;4.60;2.53;;;9.30;99.90;;;;;;5024151;28;20054;-92
2021/12/27 18:01:41;;;;;;;5.43;2.63;;;9.30;99.90;;;;;;5023469;28;20049;-91
2021/12/27 18:04:10;;;;;;;4.13;2.60;;;9.30;99.90;;;;;;5024335;28;20096;-92
2021/12/27 18:06:43;;;;;;;3.45;2.30;;;9.60;99.90;;;;;;5024459;28;20046;-93
2021/12/27 18:09:21;;;;;;;3.63;2.30;;;9.00;99.90;;;;;;5022921;28;20049;-92
2021/12/27 18:11:50;;;;;;;4.53;2.58;;;9.20;99.90;;;;;;5022526;28;20054;-92
2021/12/27 18:14:19;;;;;;;4.55;2.80;;;9.40;99.90;;;;;;5019894;28;20049;-92
2021/12/27 18:17:05;;;;;;;5.35;3.00;;;8.10;99.90;;;;;;5020365;28;20129;-92
2021/12/27 18:19:36;;;;;;;6.40;2.75;;;9.20;99.90;;;;;;5021056;28;20050;-93
2021/12/27 18:22:06;;;;;;;3.72;2.50;;;9.50;99.90;;;;;;5019733;28;20050;-92
2021/12/27 18:24:35;;;;;;;4.88;2.55;;;9.30;99.90;;;;;;5020661;28;20449;-93
2021/12/27 18:27:03;;;;;;;4.18;2.70;;;9.60;99.90;;;;;;5019753;28;20050;-92
2021/12/27 18:29:43;;;;;;;;;;;;;;;;;;;;;
2021/12/27 18:32:16;;;;;;;6.38;3.88;;;9.30;99.90;;;;;;5024396;28;20485;-94